Terminal Aerodrome Forecast
Issued by NWS

Home | Current Version | Previous Version | Text Only | Print | Product List | Glossary Off
Versions: 1 2 3 4 5 6 7 8 9 10 11 12 13 14 15 16 17 18 19 20

870
FTUS43 KDLH 170439 AAA
TAFBRD
TAF AMD
KBRD 170439Z 1705/1724 VRB03KT 4SM BR SCT250
     FM170600 32004KT 3SM BR SCT006
      TEMPO 1707/1709 1SM BR BKN003
     FM170900 00000KT 3/4SM BR SCT003
      TEMPO 1710/1714 1/2SM FZFG OVC001
     FM171600 23003KT 4SM BR SCT003
     FM171900 22005KT P6SM SCT250=

USA.gov is the U.S. government's official web portal to all federal, state and local government web resources and services.